Colatina, Brazil
Current Conditions -  °F | °C
As of 1:00 PM on Sunday 21 Dec 2014 (Local Time) from SBVT Reporting Station
Clear Clear  
Wind Chill: 90°   Ceiling: Unl
Heat Index: 96°   Visibility: 6mi
Dew Point: 72°   Wind: 16mph
Humidity: 55%   Direction: 40°NE
Pressure: 29.88"   Gusts: NA
Location:  19.54°S, 40.63°W
Report Text: SBVT 211500Z 04014KT CAVOK 32/22 Q1012
Loading
Personal Weather Stations






























Interactive Weather Map New forecast layout! Learn more

10-Day Weather Forecast

Advertisements
Track Severe Weather on mobile